sim
Sign-in with your pilot id or email,
or register
Callsign
Passwort

Schedule Details

Flight Number: DLH1833
Departure: Gran Canaria Airport (GCLP) at 13:55
Arrival: Munich Airport (EDDM) at 18:30
Route: Lufthansa Passenger Schedule. Enter filed route here before submitting Pirep.

Weather Information
Getting current METAR information for GCLP 010230Z 36012KT 9999 SCT030 22/17 Q1018 NOSIG
Getting current METAR information for EDDM 010250Z 00000KT 0800 0400NE R08L/0400U R08R/1400U FG NSC 04/03 Q1010 BECMG 0500 BKN001

Schedule Frequency

Route Map